Time;durP1;ratioP1;P1;durP2;ratioP2;P2;SDS_P1;SDS_P2;PMS_P1;PMS_P2;Temp;Humidity;BMP_temperature;BMP_pressure;BME280_temperature;BME280_humidity;BME280_pressure;Samples;Min_cycle;Max_cycle;Signal;HPM_P1;HPM_P2
2022/10/23 00:01:33;;;;;;;33.30;13.30;;;10.80;99.90;;;;;;4936702;29;20158;-75
2022/10/23 00:04:00;;;;;;;;;;;11.30;99.90;;;;;;4940496;28;20052;-77
2022/10/23 00:06:27;;;;;;;17.63;11.13;;;11.00;99.90;;;;;;4933826;29;19923;-75
2022/10/23 00:08:53;;;;;;;20.45;11.27;;;11.00;99.90;;;;;;4956470;28;20050;-77
2022/10/23 00:11:22;;;;;;;19.92;11.07;;;11.40;99.90;;;;;;4971845;28;20078;-77
2022/10/23 00:13:49;;;;;;;23.65;11.25;;;11.00;99.90;;;;;;4952108;28;20043;-77
2022/10/23 00:16:14;;;;;;;20.88;11.50;;;11.10;99.90;;;;;;4933972;29;20048;-78
2022/10/23 00:18:40;;;;;;;23.58;11.63;;;11.60;99.90;;;;;;4937702;28;20095;-75
2022/10/23 00:21:09;;;;;;;25.48;12.15;;;11.50;99.90;;;;;;4946531;29;20069;-75
2022/10/23 00:23:35;;;;;;;23.27;11.60;;;11.60;99.90;;;;;;4952709;28;20383;-76
2022/10/23 00:26:02;;;;;;;17.52;9.93;;;11.10;99.90;;;;;;4936435;29;20043;-76
2022/10/23 00:28:27;;;;;;;16.00;9.57;;;11.20;99.90;;;;;;4939698;28;20048;-77
2022/10/23 00:30:53;;;;;;;22.05;11.18;;;11.50;99.90;;;;;;4935252;29;20066;-77
2022/10/23 00:33:19;;;;;;;28.35;12.98;;;11.20;99.90;;;;;;4936780;29;20090;-76
2022/10/23 00:35:44;;;;;;;23.00;12.10;;;11.10;99.90;;;;;;4936900;28;20035;-76
2022/10/23 00:38:10;;;;;;;19.95;10.95;;;11.30;99.90;;;;;;4946162;28;20482;-77
2022/10/23 00:40:37;;;;;;;21.83;12.48;;;11.50;99.90;;;;;;4944423;29;20047;-77
2022/10/23 00:43:05;;;;;;;20.58;11.73;;;11.50;99.90;;;;;;4941590;29;20391;-76
2022/10/23 00:45:32;;;;;;;26.83;12.43;;;11.60;99.90;;;;;;4952252;28;20065;-76
2022/10/23 00:47:59;;;;;;;18.25;10.93;;;11.10;99.90;;;;;;4955049;28;20039;-76
2022/10/23 00:50:27;;;;;;;19.73;11.60;;;11.10;99.90;;;;;;4951167;29;20055;-76
2022/10/23 00:52:54;;;;;;;23.90;11.20;;;11.10;99.90;;;;;;4952580;28;20086;-78
2022/10/23 00:55:22;;;;;;;17.95;10.27;;;11.10;99.90;;;;;;4952319;28;20051;-79
2022/10/23 00:57:49;;;;;;;20.20;11.20;;;11.50;99.90;;;;;;4957908;28;20075;-73
2022/10/23 01:00:30;;;;;;;20.98;11.70;;;11.40;99.90;;;;;;4951201;28;20094;-77
2022/10/23 01:02:56;;;;;;;20.52;10.50;;;11.50;99.90;;;;;;4952959;28;20082;-76
2022/10/23 01:05:29;;;;;;;22.00;11.88;;;11.50;99.90;;;;;;4953804;29;20466;-79
2022/10/23 01:08:47;;;;;;;18.00;11.23;;;11.40;99.90;;;;;;4957454;28;20093;-77
2022/10/23 01:11:14;;;;;;;14.23;10.50;;;11.30;99.90;;;;;;4927811;29;20400;-76
2022/10/23 01:13:54;;;;;;;24.63;12.32;;;11.10;99.90;;;;;;4938035;29;20545;-75
2022/10/23 01:16:22;;;;;;;17.58;10.48;;;11.10;99.90;;;;;;4947593;28;20059;-78
2022/10/23 01:19:01;;;;;;;29.08;12.05;;;11.40;99.90;;;;;;4948634;28;20121;-78
2022/10/23 01:21:35;;;;;;;18.50;11.07;;;11.50;99.90;;;;;;4947344;29;20650;-77
2022/10/23 01:24:22;;;;;;;19.88;12.40;;;11.40;99.90;;;;;;4936408;28;20051;-76
2022/10/23 01:27:15;;;;;;;22.52;11.90;;;11.60;99.90;;;;;;4949217;28;20529;-76
2022/10/23 01:30:05;;;;;;;24.77;12.63;;;11.10;99.90;;;;;;4934893;28;20063;-79
2022/10/23 01:32:36;;;;;;;18.52;12.05;;;11.30;99.90;;;;;;4947354;28;20039;-78
2022/10/23 01:35:21;;;;;;;19.48;12.68;;;11.30;99.90;;;;;;4934335;28;20113;-77
2022/10/23 01:38:12;;;;;;;21.63;12.45;;;11.10;99.90;;;;;;4933292;29;20044;-77
2022/10/23 01:40:41;;;;;;;36.13;13.82;;;11.40;99.90;;;;;;4932849;29;20048;-77
2022/10/23 01:43:18;;;;;;;20.33;11.75;;;11.30;99.90;;;;;;4942572;29;20047;-77
2022/10/23 01:45:57;;;;;;;21.30;12.07;;;11.50;99.90;;;;;;4939127;28;20043;-77
2022/10/23 01:48:28;;;;;;;21.35;12.50;;;11.40;99.90;;;;;;4951416;29;20043;-77
2022/10/23 01:51:00;;;;;;;20.42;11.38;;;11.40;99.90;;;;;;4951951;28;20043;-79
2022/10/23 01:53:30;;;;;;;23.40;13.05;;;11.20;99.90;;;;;;4950498;28;20138;-76
2022/10/23 01:55:57;;;;;;;16.35;11.45;;;11.10;99.90;;;;;;4944390;28;20031;-78
2022/10/23 01:58:26;;;;;;;22.52;11.65;;;11.00;99.90;;;;;;4946406;28;20430;-76
2022/10/23 02:00:57;;;;;;;20.23;11.57;;;11.40;99.90;;;;;;4931416;29;20047;-78
2022/10/23 02:03:25;;;;;;;19.25;11.82;;;11.10;99.90;;;;;;4935457;29;20110;-77
2022/10/23 02:05:51;;;;;;;24.73;12.93;;;11.40;99.90;;;;;;4926525;29;20052;-76
2022/10/23 02:08:17;;;;;;;26.60;12.50;;;11.20;99.90;;;;;;4949021;28;20132;-78
2022/10/23 02:10:58;;;;;;;20.92;12.57;;;11.00;99.90;;;;;;4951092;28;20047;-78
2022/10/23 02:13:37;;;;;;;25.42;13.13;;;11.10;99.90;;;;;;4944375;29;20545;-77
2022/10/23 02:16:12;;;;;;;24.65;14.52;;;11.10;99.90;;;;;;4949697;28;20043;-78
2022/10/23 02:18:40;;;;;;;24.20;13.85;;;11.30;99.90;;;;;;4932733;29;20098;-77
2022/10/23 02:21:13;;;;;;;22.10;11.73;;;11.20;99.90;;;;;;4932904;29;20055;-76
2022/10/23 02:23:48;;;;;;;19.55;12.00;;;11.40;99.90;;;;;;4936860;29;20043;-77
2022/10/23 02:26:38;;;;;;;21.23;11.05;;;11.20;99.90;;;;;;4950639;28;20054;-78
2022/10/23 02:29:16;;;;;;;18.38;10.43;;;11.10;99.90;;;;;;4938681;29;20043;-78
2022/10/23 02:31:42;;;;;;;19.85;11.40;;;11.20;99.90;;;;;;4949507;28;20371;-78
2022/10/23 02:34:08;;;;;;;16.15;9.85;;;10.80;99.90;;;;;;4948696;29;20047;-78
2022/10/23 02:36:34;;;;;;;21.55;10.35;;;11.10;99.90;;;;;;4949059;28;20113;-76
2022/10/23 02:38:59;;;;;;;17.65;11.45;;;10.80;99.90;;;;;;4927598;29;20043;-77
2022/10/23 02:41:57;;;;;;;18.90;10.57;;;11.10;99.90;;;;;;4944631;29;20043;-78
2022/10/23 02:44:36;;;;;;;19.92;10.25;;;11.10;99.90;;;;;;4936896;29;20062;-77
2022/10/23 02:47:13;;;;;;;20.60;11.30;;;10.60;99.90;;;;;;4969882;28;20101;-78
2022/10/23 02:50:22;;;;;;;22.23;12.50;;;10.80;99.90;;;;;;4946420;28;20052;-75
2022/10/23 02:52:53;;;;;;;22.38;11.60;;;11.00;99.90;;;;;;4942667;28;20047;-76
2022/10/23 02:55:30;;;;;;;16.35;10.40;;;10.70;99.90;;;;;;4931698;29;20656;-77
2022/10/23 02:58:07;;;;;;;17.35;10.45;;;10.60;99.90;;;;;;4944634;28;20058;-77
2022/10/23 03:00:37;;;;;;;15.05;10.38;;;10.60;99.90;;;;;;4949166;28;20414;-78
2022/10/23 03:03:17;;;;;;;17.48;11.60;;;10.70;99.90;;;;;;4950904;28;20352;-76
2022/10/23 03:05:46;;;;;;;26.92;14.30;;;10.50;99.90;;;;;;4932477;29;20112;-76
2022/10/23 03:08:13;;;;;;;16.42;10.63;;;10.80;99.90;;;;;;4945640;28;20086;-74
2022/10/23 03:10:40;;;;;;;26.75;13.13;;;10.60;99.90;;;;;;4932044;29;20052;-78
2022/10/23 03:13:06;;;;;;;22.55;12.60;;;10.40;99.90;;;;;;4943632;29;20114;-79
2022/10/23 03:15:32;;;;;;;23.77;11.57;;;10.50;99.90;;;;;;4927915;29;20527;-77
2022/10/23 03:17:57;;;;;;;27.27;13.82;;;10.80;99.90;;;;;;4943351;28;20126;-78
2022/10/23 03:20:23;;;;;;;19.60;11.98;;;10.40;99.90;;;;;;4947364;28;20039;-76
2022/10/23 03:22:49;;;;;;;26.42;13.30;;;10.50;99.90;;;;;;4966163;28;20050;-77
2022/10/23 03:25:15;;;;;;;20.67;13.98;;;10.90;99.90;;;;;;4936204;28;20054;-77
2022/10/23 03:27:40;;;;;;;19.05;12.68;;;11.00;99.90;;;;;;4932967;29;20047;-78
2022/10/23 03:30:06;;;;;;;15.98;13.00;;;10.80;99.90;;;;;;4934880;28;20032;-75
2022/10/23 03:32:32;;;;;;;19.17;15.80;;;10.80;99.90;;;;;;4939372;28;20082;-78
2022/10/23 03:34:58;;;;;;;19.00;14.18;;;10.90;99.90;;;;;;4935918;28;20088;-78
2022/10/23 03:37:23;;;;;;;25.23;15.15;;;10.60;99.90;;;;;;4929764;29;20082;-76
2022/10/23 03:39:49;;;;;;;20.85;13.70;;;10.70;99.90;;;;;;4936734;28;20058;-76
2022/10/23 03:42:15;;;;;;;17.10;14.02;;;10.80;99.90;;;;;;4940127;28;20035;-78
2022/10/23 03:44:40;;;;;;;19.67;14.25;;;10.70;99.90;;;;;;4931852;29;20115;-73
2022/10/23 03:47:08;;;;;;;18.58;11.82;;;10.80;99.90;;;;;;4941109;29;20047;-75
2022/10/23 03:49:34;;;;;;;18.10;14.18;;;10.50;99.90;;;;;;4934330;28;20110;-77
2022/10/23 03:52:00;;;;;;;20.77;15.00;;;10.90;99.90;;;;;;4950390;29;20048;-78
2022/10/23 03:54:26;;;;;;;20.92;13.77;;;10.50;99.90;;;;;;4951082;28;20114;-79
2022/10/23 03:56:53;;;;;;;17.85;12.73;;;10.50;99.90;;;;;;4948712;28;20062;-77
2022/10/23 03:59:19;;;;;;;18.85;12.80;;;10.80;99.90;;;;;;4930375;29;20450;-78
2022/10/23 04:01:45;;;;;;;17.38;14.27;;;10.60;99.90;;;;;;4942084;28;20047;-78
2022/10/23 04:04:11;;;;;;;16.95;12.55;;;11.00;99.90;;;;;;4948660;28;20097;-79
2022/10/23 04:06:37;;;;;;;17.95;12.68;;;10.40;99.90;;;;;;4952829;29;20502;-78
2022/10/23 04:09:04;;;;;;;13.70;11.73;;;10.40;99.90;;;;;;4953470;28;20047;-76
2022/10/23 04:11:30;;;;;;;19.42;14.60;;;10.50;99.90;;;;;;4919792;29;20116;-77
2022/10/23 04:13:55;;;;;;;19.05;14.48;;;10.60;99.90;;;;;;4933146;29;20047;-77
2022/10/23 04:16:23;;;;;;;15.63;12.60;;;10.50;99.90;;;;;;4944009;28;20043;-77
2022/10/23 04:18:48;;;;;;;25.58;13.85;;;10.90;99.90;;;;;;4951173;28;20102;-78
2022/10/23 04:21:14;;;;;;;15.20;13.23;;;10.90;99.90;;;;;;4949375;28;20127;-75
2022/10/23 04:23:40;;;;;;;19.02;15.27;;;10.50;99.90;;;;;;4947533;29;20035;-77
2022/10/23 04:26:06;;;;;;;20.27;14.20;;;10.80;99.90;;;;;;4934089;29;20047;-78
2022/10/23 04:28:31;;;;;;;24.35;16.15;;;10.60;99.90;;;;;;4936996;29;20078;-76
2022/10/23 04:30:57;;;;;;;39.00;14.93;;;10.50;99.90;;;;;;4952079;28;20051;-77
2022/10/23 04:33:23;;;;;;;20.95;15.07;;;10.70;99.90;;;;;;4964432;28;20078;-78
2022/10/23 04:35:48;;;;;;;23.15;15.50;;;10.60;99.90;;;;;;4951535;28;20398;-76
2022/10/23 04:38:14;;;;;;;17.08;13.57;;;10.60;99.90;;;;;;4953229;28;20050;-78
2022/10/23 04:40:39;;;;;;;20.50;14.80;;;10.90;99.90;;;;;;4950329;28;20135;-74
2022/10/23 04:43:05;;;;;;;19.35;14.68;;;10.80;99.90;;;;;;4952788;28;20463;-77
2022/10/23 04:45:31;;;;;;;20.90;15.00;;;10.80;99.90;;;;;;4950287;28;20118;-79
2022/10/23 04:47:56;;;;;;;19.45;14.48;;;10.50;99.90;;;;;;4961547;28;20043;-75
2022/10/23 04:50:22;;;;;;;21.02;14.40;;;10.80;99.90;;;;;;4942282;28;20039;-75
2022/10/23 04:52:52;;;;;;;20.52;15.60;;;10.60;99.90;;;;;;4940698;28;20177;-77
2022/10/23 04:55:17;;;;;;;27.92;16.73;;;10.60;99.90;;;;;;4934847;28;20051;-78
2022/10/23 04:57:43;;;;;;;23.70;15.20;;;11.00;99.90;;;;;;4933918;29;20047;-76
2022/10/23 05:00:11;;;;;;;26.77;16.63;;;10.70;99.90;;;;;;4945562;28;20091;-76
2022/10/23 05:02:37;;;;;;;22.58;16.83;;;10.90;99.90;;;;;;4950953;28;20031;-75
2022/10/23 05:05:03;;;;;;;31.35;18.80;;;11.00;99.90;;;;;;4937076;28;20051;-77
2022/10/23 05:07:28;;;;;;;29.08;17.42;;;10.80;99.90;;;;;;4932995;29;20391;-76
2022/10/23 05:09:54;;;;;;;35.95;18.10;;;10.70;99.90;;;;;;4944407;28;20055;-75
2022/10/23 05:12:20;;;;;;;30.58;17.90;;;10.70;99.90;;;;;;4942807;28;20198;-78
2022/10/23 05:14:45;;;;;;;25.17;17.20;;;10.90;99.90;;;;;;4933042;29;20039;-78
2022/10/23 05:17:15;;;;;;;27.45;18.98;;;11.10;99.90;;;;;;4946456;28;20426;-77
2022/10/23 05:19:43;;;;;;;;;;;10.90;99.90;;;;;;4950487;28;20065;-75
2022/10/23 05:22:11;;;;;;;34.50;18.98;;;10.70;99.90;;;;;;4948594;28;19926;-77
2022/10/23 05:24:36;;;;;;;28.77;18.52;;;11.00;99.90;;;;;;4951063;29;20039;-78
2022/10/23 05:27:02;;;;;;;24.95;18.23;;;11.00;99.90;;;;;;4948879;29;20047;-77
2022/10/23 05:29:28;;;;;;;34.28;18.88;;;10.70;99.90;;;;;;4939044;28;20047;-70
2022/10/23 05:32:00;;;;;;;28.45;17.65;;;11.00;99.90;;;;;;4943354;29;20043;-74
2022/10/23 05:34:27;;;;;;;26.25;17.67;;;10.80;99.90;;;;;;4939763;28;20091;-73
2022/10/23 05:36:53;;;;;;;30.30;20.63;;;10.60;99.90;;;;;;4943139;29;20175;-70
2022/10/23 05:39:19;;;;;;;43.90;20.50;;;11.00;99.90;;;;;;4938648;28;20419;-72
2022/10/23 05:41:45;;;;;;;27.52;16.77;;;10.90;99.90;;;;;;4938849;28;20059;-72
2022/10/23 05:44:11;;;;;;;37.65;19.70;;;10.50;99.90;;;;;;4947404;28;20458;-72
2022/10/23 05:46:43;;;;;;;28.95;17.63;;;10.60;99.90;;;;;;4947561;28;20123;-73
2022/10/23 05:49:09;;;;;;;35.30;19.77;;;10.80;99.90;;;;;;4942264;28;20130;-73
2022/10/23 05:51:39;;;;;;;27.23;17.33;;;10.70;99.90;;;;;;4939718;28;20135;-73
2022/10/23 05:54:07;;;;;;;29.63;19.05;;;10.50;99.90;;;;;;4947421;29;20079;-73
2022/10/23 05:56:37;;;;;;;33.00;18.40;;;10.80;99.90;;;;;;4948078;29;20554;-74
2022/10/23 05:59:03;;;;;;;33.13;18.85;;;10.90;99.90;;;;;;4939927;28;20142;-74
2022/10/23 06:01:29;;;;;;;31.48;18.17;;;10.90;99.90;;;;;;4950146;28;20126;-73
2022/10/23 06:03:57;;;;;;;31.50;16.33;;;10.90;99.90;;;;;;4940977;28;20444;-73
2022/10/23 06:06:22;;;;;;;31.50;18.35;;;10.80;99.90;;;;;;4938181;28;20383;-72
2022/10/23 06:08:48;;;;;;;24.15;16.73;;;10.90;99.90;;;;;;4949821;28;20055;-72
2022/10/23 06:11:14;;;;;;;27.42;18.42;;;10.60;99.90;;;;;;4951014;28;20035;-74
2022/10/23 06:13:44;;;;;;;26.63;15.20;;;10.70;99.90;;;;;;4948621;28;20062;-74
2022/10/23 06:16:27;;;;;;;28.73;18.08;;;10.70;99.90;;;;;;4943512;29;20128;-73
2022/10/23 06:18:53;;;;;;;53.40;18.45;;;10.60;99.90;;;;;;4948161;28;20067;-74
2022/10/23 06:21:19;;;;;;;28.55;18.90;;;11.10;99.90;;;;;;4949635;28;20481;-72
2022/10/23 06:23:46;;;;;;;28.98;17.25;;;10.70;99.90;;;;;;4933525;28;20123;-74
2022/10/23 06:26:14;;;;;;;34.10;19.17;;;11.10;99.90;;;;;;4940897;28;20051;-79
2022/10/23 06:28:40;;;;;;;25.60;18.25;;;10.90;99.90;;;;;;4950159;28;20054;-79
2022/10/23 06:31:08;;;;;;;25.77;18.40;;;11.00;99.90;;;;;;4940384;28;20131;-79
2022/10/23 06:33:34;;;;;;;28.13;17.50;;;10.60;99.90;;;;;;4948073;28;20127;-79
2022/10/23 06:36:01;;;;;;;28.73;18.42;;;11.20;99.90;;;;;;4951024;28;20057;-82
2022/10/23 06:38:26;;;;;;;23.63;16.67;;;11.10;99.90;;;;;;4951391;28;20057;-76
2022/10/23 06:40:54;;;;;;;27.88;17.60;;;10.80;99.90;;;;;;4950155;28;20226;-78
2022/10/23 06:43:19;;;;;;;31.23;17.00;;;10.70;99.90;;;;;;4943345;29;20126;-75
2022/10/23 06:45:45;;;;;;;25.15;16.55;;;11.00;99.90;;;;;;4942976;28;20135;-73
2022/10/23 06:48:11;;;;;;;27.58;17.30;;;11.30;99.90;;;;;;4945332;28;20058;-73
2022/10/23 06:50:37;;;;;;;23.05;17.27;;;10.90;99.90;;;;;;4940782;28;20053;-73
2022/10/23 06:53:04;;;;;;;29.45;17.00;;;10.80;99.90;;;;;;4944002;28;20055;-74
2022/10/23 06:55:31;;;;;;;24.92;17.58;;;11.00;99.90;;;;;;4925839;29;20502;-73
2022/10/23 06:57:58;;;;;;;28.02;17.95;;;11.30;99.90;;;;;;4935841;28;20054;-74
2022/10/23 07:00:24;;;;;;;26.17;17.05;;;11.00;99.90;;;;;;4931018;29;20047;-74
2022/10/23 07:02:51;;;;;;;23.70;16.98;;;11.00;99.90;;;;;;4942949;28;20043;-73
2022/10/23 07:05:18;;;;;;;30.00;17.88;;;11.00;99.90;;;;;;4947626;28;20047;-73
2022/10/23 07:07:44;;;;;;;30.33;17.95;;;11.30;99.90;;;;;;4948574;28;20436;-76
2022/10/23 07:10:09;;;;;;;32.55;17.55;;;11.30;99.90;;;;;;4949211;28;20047;-74
2022/10/23 07:12:35;;;;;;;26.38;16.33;;;11.40;99.90;;;;;;4950628;28;20031;-77
2022/10/23 07:15:01;;;;;;;27.20;15.68;;;11.30;99.90;;;;;;4958346;28;20600;-73
2022/10/23 07:17:27;;;;;;;28.40;16.92;;;11.40;99.90;;;;;;4951430;28;20031;-73
2022/10/23 07:19:53;;;;;;;22.33;16.52;;;11.60;99.90;;;;;;4946213;28;20050;-77
2022/10/23 07:22:19;;;;;;;22.42;14.50;;;11.10;99.90;;;;;;4957255;28;20063;-82
2022/10/23 07:24:44;;;;;;;25.05;15.98;;;11.10;99.90;;;;;;4954434;28;20031;-85
2022/10/23 07:27:10;;;;;;;22.80;15.73;;;11.30;99.90;;;;;;4953210;28;20083;-73
2022/10/23 07:29:36;;;;;;;23.83;15.10;;;11.20;99.90;;;;;;4947109;28;20051;-87
2022/10/23 07:32:03;;;;;;;19.55;15.05;;;11.20;99.90;;;;;;4953345;28;20509;-85
2022/10/23 07:34:30;;;;;;;30.20;15.70;;;11.20;99.90;;;;;;4950047;28;20164;-86
2022/10/23 07:36:56;;;;;;;28.95;18.10;;;11.40;99.90;;;;;;4941836;28;20099;-85
2022/10/23 07:39:23;;;;;;;24.27;14.43;;;11.80;99.90;;;;;;4949425;28;20123;-87
2022/10/23 07:41:50;;;;;;;25.13;17.65;;;11.30;99.90;;;;;;4937421;29;20062;-86
2022/10/23 07:44:15;;;;;;;17.90;14.68;;;11.80;99.90;;;;;;4953809;28;20110;-88
2022/10/23 07:46:41;;;;;;;24.30;15.90;;;11.60;99.90;;;;;;4942784;28;20047;-87
2022/10/23 07:49:09;;;;;;;23.50;17.45;;;11.40;99.90;;;;;;4955854;29;20040;-90
2022/10/23 07:51:34;;;;;;;23.52;15.13;;;11.80;99.90;;;;;;4966071;28;20062;-84
2022/10/23 07:54:00;;;;;;;19.92;14.40;;;11.50;99.90;;;;;;4950704;28;20495;-86
2022/10/23 07:56:30;;;;;;;21.27;13.27;;;11.50;99.90;;;;;;4944540;29;20050;-83
2022/10/23 07:58:56;;;;;;;20.23;12.40;;;11.40;99.90;;;;;;4949394;28;20376;-84
2022/10/23 08:01:38;;;;;;;19.73;15.00;;;11.70;99.90;;;;;;4953378;28;20102;-80
2022/10/23 08:04:04;;;;;;;18.25;14.32;;;11.90;99.90;;;;;;4948705;28;20139;-80
2022/10/23 08:06:30;;;;;;;19.40;13.20;;;11.50;99.90;;;;;;4951472;28;20090;-84
2022/10/23 08:08:56;;;;;;;21.63;13.95;;;11.70;99.90;;;;;;4951828;29;20078;-82
2022/10/23 08:11:26;;;;;;;25.33;14.55;;;11.70;99.90;;;;;;4952509;29;20043;-85
2022/10/23 08:13:53;;;;;;;19.92;13.05;;;11.90;99.90;;;;;;4949034;28;20066;-85
2022/10/23 08:16:19;;;;;;;20.75;13.32;;;12.10;99.90;;;;;;4958466;28;20071;-83
2022/10/23 08:18:44;;;;;;;23.70;13.07;;;12.20;99.90;;;;;;4959355;28;20039;-88
2022/10/23 08:21:10;;;;;;;16.98;12.45;;;12.30;99.90;;;;;;4952269;28;20120;-82
2022/10/23 08:23:36;;;;;;;15.93;13.88;;;11.90;99.90;;;;;;4952552;28;20058;-86
2022/10/23 08:26:04;;;;;;;20.80;13.80;;;12.00;99.90;;;;;;4943972;28;20051;-87
2022/10/23 08:28:30;;;;;;;16.85;11.68;;;12.50;99.90;;;;;;4947515;28;20475;-79
2022/10/23 08:30:56;;;;;;;16.40;12.13;;;12.00;99.90;;;;;;4948316;28;20078;-84
2022/10/23 08:33:22;;;;;;;20.65;12.88;;;12.10;99.90;;;;;;4951837;28;20047;-78
2022/10/23 08:35:48;;;;;;;19.27;12.40;;;12.70;99.90;;;;;;4968984;28;20043;-84
2022/10/23 08:38:14;;;;;;;21.67;13.15;;;12.20;99.90;;;;;;4952835;28;20051;-77
2022/10/23 08:40:47;;;;;;;19.13;12.85;;;12.30;99.90;;;;;;4956329;28;20402;-84
2022/10/23 08:43:50;;;;;;;21.13;12.52;;;12.90;99.90;;;;;;4953337;28;20054;-84
2022/10/23 08:46:22;;;;;;;21.42;12.68;;;12.50;99.90;;;;;;4931660;29;20055;-86
2022/10/23 08:48:53;;;;;;;17.33;11.20;;;12.70;99.90;;;;;;4945351;28;20190;-81
2022/10/23 08:51:34;;;;;;;23.50;12.48;;;13.10;99.90;;;;;;4939081;28;20056;-81
2022/10/23 08:54:43;;;;;;;18.65;12.70;;;13.10;99.90;;;;;;4945511;29;20063;-79
2022/10/23 08:57:14;;;;;;;27.33;13.10;;;13.00;99.90;;;;;;4944112;28;20055;-85
2022/10/23 08:59:43;;;;;;;21.27;12.80;;;12.60;99.90;;;;;;4943577;28;20086;-77
2022/10/23 09:02:21;;;;;;;22.15;12.43;;;12.80;99.90;;;;;;4955920;28;20079;-85
2022/10/23 09:04:49;;;;;;;18.60;12.00;;;13.20;99.90;;;;;;4957903;28;20038;-88
2022/10/23 09:07:33;;;;;;;17.02;10.60;;;13.20;99.90;;;;;;4951367;28;20074;-82
2022/10/23 09:10:27;;;;;;;15.55;10.13;;;13.40;99.90;;;;;;4944832;28;20047;-84
2022/10/23 09:13:01;;;;;;;19.40;10.85;;;12.90;99.90;;;;;;4954490;28;20086;-87
2022/10/23 09:15:39;;;;;;;11.77;10.07;;;13.40;99.90;;;;;;4953680;28;20058;-92
2022/10/23 09:18:13;;;;;;;13.82;11.27;;;13.10;99.90;;;;;;4953253;29;20041;-81
2022/10/23 09:20:43;;;;;;;14.82;9.40;;;13.50;99.90;;;;;;4953035;28;20047;-80
2022/10/23 09:23:16;;;;;;;16.37;11.50;;;13.60;99.90;;;;;;4949956;28;20875;-82
2022/10/23 09:25:43;;;;;;;16.55;10.48;;;13.40;99.90;;;;;;4946226;28;20329;-79
2022/10/23 09:28:29;;;;;;;14.75;9.65;;;13.30;99.90;;;;;;4956457;28;20044;-83
2022/10/23 09:31:11;;;;;;;14.73;8.50;;;13.70;99.90;;;;;;4937478;29;20044;-85
2022/10/23 09:33:37;;;;;;;16.30;9.82;;;13.30;99.90;;;;;;4951913;29;20110;-79
2022/10/23 09:36:06;;;;;;;18.23;9.80;;;13.80;99.90;;;;;;4944626;29;20463;-81
2022/10/23 09:38:35;;;;;;;12.00;7.80;;;13.90;99.90;;;;;;4951500;28;20391;-80
2022/10/23 09:41:06;;;;;;;13.52;8.35;;;13.40;99.90;;;;;;4963817;28;20706;-81
2022/10/23 09:43:32;;;;;;;10.90;8.55;;;13.90;99.90;;;;;;4949995;28;20513;-83
2022/10/23 09:46:01;;;;;;;13.52;7.78;;;14.10;99.90;;;;;;4951642;29;20054;-78
2022/10/23 09:48:27;;;;;;;11.82;7.72;;;14.10;99.90;;;;;;4952805;28;20047;-86
2022/10/23 09:51:03;;;;;;;9.45;7.15;;;13.80;99.90;;;;;;4952902;28;20046;-78
2022/10/23 09:53:37;;;;;;;14.20;8.32;;;13.70;99.90;;;;;;4957499;28;20110;-86
2022/10/23 09:56:10;;;;;;;17.85;9.32;;;14.20;99.90;;;;;;4946393;29;20093;-86
2022/10/23 09:58:41;;;;;;;18.05;8.13;;;14.30;99.90;;;;;;4952184;28;20123;-86
2022/10/23 10:01:22;;;;;;;16.02;7.30;;;14.40;99.90;;;;;;4951075;28;20055;-84
2022/10/23 10:03:50;;;;;;;14.02;7.00;;;14.00;99.90;;;;;;4950936;29;20047;-81
2022/10/23 10:06:25;;;;;;;20.33;8.02;;;14.50;99.90;;;;;;4951115;28;20039;-79
2022/10/23 10:08:55;;;;;;;16.27;7.65;;;14.00;99.90;;;;;;4951200;28;20070;-83
2022/10/23 10:11:42;;;;;;;14.27;6.53;;;14.60;99.90;;;;;;4950737;28;20046;-83
2022/10/23 10:14:42;;;;;;;10.00;6.07;;;14.70;99.90;;;;;;4935252;29;20067;-86
2022/10/23 10:17:13;;;;;;;13.65;6.45;;;14.20;99.90;;;;;;4953159;28;20047;-85
2022/10/23 10:20:06;;;;;;;10.15;5.40;;;14.30;99.90;;;;;;4953172;28;20047;-86
2022/10/23 10:22:47;;;;;;;9.68;6.43;;;14.90;99.90;;;;;;4937262;29;20050;-81
2022/10/23 10:25:19;;;;;;;9.32;4.75;;;15.00;99.90;;;;;;4951164;29;20125;-83
2022/10/23 10:28:11;;;;;;;10.35;5.60;;;15.00;99.90;;;;;;4944172;28;20407;-78
2022/10/23 10:31:05;;;;;;;8.30;4.78;;;14.80;99.90;;;;;;4934331;29;20163;-74
2022/10/23 10:33:55;;;;;;;9.05;5.07;;;14.70;99.90;;;;;;4938079;29;20055;-80
2022/10/23 10:36:27;;;;;;;7.80;4.20;;;14.70;99.90;;;;;;4949840;29;20086;-82
2022/10/23 10:38:59;;;;;;;7.35;4.55;;;15.20;99.90;;;;;;4940892;28;20048;-81
2022/10/23 10:41:51;;;;;;;7.00;4.13;;;14.90;99.90;;;;;;4955716;28;20039;-76
2022/10/23 10:44:37;;;;;;;7.90;4.60;;;15.10;99.90;;;;;;4947738;28;20039;-84
2022/10/23 10:47:12;;;;;;;13.55;4.95;;;15.40;99.90;;;;;;4935968;29;20047;-83
2022/10/23 10:49:47;;;;;;;14.82;5.15;;;15.30;99.90;;;;;;4950749;28;20089;-85
2022/10/23 10:52:42;;;;;;;8.90;4.70;;;15.10;99.90;;;;;;4949951;28;20738;-80
2022/10/23 10:55:25;;;;;;;19.15;5.70;;;15.30;99.90;;;;;;4948565;29;20079;-81
2022/10/23 10:58:15;;;;;;;10.25;4.10;;;15.10;99.90;;;;;;4944062;29;20058;-79
2022/10/23 11:00:43;;;;;;;9.57;5.50;;;15.50;99.90;;;;;;4932136;29;20051;-81
2022/10/23 11:03:24;;;;;;;9.40;4.05;;;15.60;99.90;;;;;;4951316;29;20287;-80
2022/10/23 11:05:52;;;;;;;7.82;4.10;;;15.60;99.90;;;;;;4950309;29;20243;-78
2022/10/23 11:08:26;;;;;;;6.90;3.53;;;15.50;99.90;;;;;;4945134;29;20071;-82
2022/10/23 11:11:03;;;;;;;6.18;3.53;;;15.70;99.90;;;;;;4932740;29;20048;-81
2022/10/23 11:13:35;;;;;;;9.48;4.10;;;15.60;99.90;;;;;;4937045;29;20040;-81
2022/10/23 11:16:20;;;;;;;6.57;3.85;;;15.20;99.90;;;;;;4939889;29;20656;-80
2022/10/23 11:18:52;;;;;;;4.68;2.88;;;15.40;99.90;;;;;;4935057;29;20123;-77
2022/10/23 11:21:46;;;;;;;4.88;2.90;;;15.70;99.90;;;;;;4934605;29;20054;-77
2022/10/23 11:24:51;;;;;;;6.38;2.72;;;15.30;99.90;;;;;;4935438;29;20398;-75
2022/10/23 11:27:35;;;;;;;8.48;3.42;;;15.30;99.90;;;;;;4938804;29;20543;-80
2022/10/23 11:30:06;;;;;;;9.77;3.22;;;15.40;99.90;;;;;;4935350;28;20082;-79
2022/10/23 11:32:59;;;;;;;11.77;3.35;;;15.50;99.90;;;;;;4960648;28;20047;-81
2022/10/23 11:35:37;;;;;;;9.93;3.63;;;15.50;99.90;;;;;;4954537;28;20047;-77
2022/10/23 11:38:23;;;;;;;7.13;3.20;;;15.40;99.90;;;;;;4939487;28;20047;-79
2022/10/23 11:40:56;;;;;;;7.95;3.17;;;15.50;99.90;;;;;;4950150;29;20472;-85
2022/10/23 11:43:32;;;;;;;6.75;2.50;;;15.40;99.90;;;;;;4954706;28;20080;-75
2022/10/23 11:46:14;;;;;;;4.15;2.88;;;15.80;99.90;;;;;;4935075;29;20094;-79
2022/10/23 11:48:43;;;;;;;4.97;2.63;;;15.40;99.90;;;;;;4941438;29;20058;-80
2022/10/23 11:51:32;;;;;;;5.05;2.47;;;15.30;99.90;;;;;;4954772;28;20057;-77
2022/10/23 11:54:25;;;;;;;10.27;4.28;;;15.70;99.90;;;;;;4942819;28;20052;-80
2022/10/23 11:57:13;;;;;;;5.70;2.38;;;15.30;99.90;;;;;;4932655;29;20060;-80
2022/10/23 11:59:55;;;;;;;5.30;2.83;;;15.70;99.90;;;;;;4944830;29;20171;-79
2022/10/23 12:02:36;;;;;;;7.15;2.72;;;15.40;99.90;;;;;;4954611;28;20089;-78
2022/10/23 12:05:21;;;;;;;7.25;2.92;;;15.50;99.90;;;;;;4954403;28;20058;-80
2022/10/23 12:07:54;;;;;;;15.73;4.75;;;15.40;99.90;;;;;;4939153;28;20060;-80
2022/10/23 12:10:34;;;;;;;12.15;4.20;;;15.80;99.90;;;;;;4934116;29;20172;-79
2022/10/23 12:13:05;;;;;;;5.73;4.17;;;15.60;99.90;;;;;;4934697;29;20052;-80
2022/10/23 12:15:33;;;;;;;5.82;3.08;;;15.50;99.90;;;;;;4954509;28;20138;-80
2022/10/23 12:18:15;;;;;;;7.70;2.75;;;15.80;99.90;;;;;;4955477;28;20057;-80
2022/10/23 12:20:46;;;;;;;7.60;3.55;;;15.50;99.90;;;;;;4955435;29;20074;-78
2022/10/23 12:23:27;;;;;;;12.40;3.17;;;15.40;99.90;;;;;;4954835;28;20043;-77
2022/10/23 12:26:22;;;;;;;6.57;2.53;;;15.80;99.90;;;;;;4954415;28;20062;-77
2022/10/23 12:29:14;;;;;;;10.38;3.30;;;15.40;99.90;;;;;;4954686;28;20083;-78
2022/10/23 12:32:14;;;;;;;5.60;2.92;;;15.60;99.90;;;;;;4955696;28;20066;-77
2022/10/23 12:34:52;;;;;;;;;;;15.50;99.90;;;;;;4955305;28;20051;-79
2022/10/23 12:37:48;;;;;;;5.10;2.60;;;15.80;99.90;;;;;;4964935;28;20025;-77
2022/10/23 12:40:14;;;;;;;3.70;2.75;;;15.80;99.90;;;;;;4955729;28;20043;-78
2022/10/23 12:42:48;;;;;;;4.78;2.55;;;15.50;99.90;;;;;;4954765;28;20058;-79
2022/10/23 12:45:23;;;;;;;10.75;3.55;;;15.70;99.90;;;;;;4967338;28;20055;-78
2022/10/23 12:47:50;;;;;;;6.40;3.00;;;16.00;99.90;;;;;;4953154;29;20131;-79
2022/10/23 12:50:34;;;;;;;9.68;3.25;;;15.60;99.90;;;;;;4933603;29;20058;-78
2022/10/23 12:53:02;;;;;;;9.45;3.13;;;15.80;99.90;;;;;;4933725;29;20074;-79
2022/10/23 12:55:44;;;;;;;7.05;2.40;;;15.80;99.90;;;;;;4950551;29;20045;-80
2022/10/23 12:58:18;;;;;;;3.60;2.60;;;15.90;99.90;;;;;;4953108;28;20043;-79